Hoxie, AR (72433)

5:12 AM CDT on July 14, 2014 (GMT -0500)
Walnut Ridge Regional (KARG) Elev 272 ft | 36.12 °N, 90.93 °W | Change Station

Current weather conditions updated 17 minutes ago

Clear
Clear
79 °F
Feels Like 79 °F
N
12
Wind Variable Wind from NNW

Today is forecast to be nearly the same temperature as yesterday. Showers and thunderstorms.

Today
High -- | Low -- °F
--% Chance of Precip.
Yesterday
High -- | Low -- °F
Precip. -- in
5:57 AM 8:21 PM
Waning Gibbous, 94% visible
Pressure 29.96 in
Visibility 9.0 miles
Clouds Clear
Dew Point 72 °F
Humidity 78%
Rainfall 0.12 in
Snow Depth Not available.
UV 0 out of 12
Pollen 3.50 out of 12
Air Quality Not available.
Flu Activity No Activity
METAR KARG 140955Z AUTO 33010KT 9SM CLR 26/22 A2996 RMK AO1 P0004

More Conditions Fewer Conditions

Pressure 29.96 in
Visibility 9.0 miles
Clouds Clear
Dew Point 72 °F
Humidity 78%
Rainfall 0.12 in
Snow Depth Not available.
UV 0 out of 12
Pollen 3.50 out of 12
Air Quality Not available.
Flu Activity No Activity
METAR KARG 140955Z AUTO 33010KT 9SM CLR 26/22 A2996 RMK AO1 P0004

More Conditions Fewer Conditions

10-Day Weather Forecast

Almanac

Astronomy

Jul. 14, 2014 Rise Set
Actual Time 5:57 AM CDT 8:21 PM CDT
Civil Twilight 5:28 AM CDT 8:50 PM CDT
Nautical Twilight 4:51 AM CDT 9:27 PM CDT
Astronomical Twilight 4:11 AM CDT 10:06 PM CDT
Moon 9:58 PM CDT 8:34 AM CDT
Length of Visible Light 15h 22m
Length of Day
14h 23m
Tomorrow will be 1m 7s shorter.
Waning Gibbous, 94% of the Moon is Illuminated
Today
Waning Gibbous
Jul 18
Last Quarter
Jul 26
New
Aug 3
First Quarter
Aug 10
Full

Today's Extremes

State Highs State Lows

Community

WunderPhotos

Upload Photos

1,733,593 photos uploaded!

Nearby

Snow Depth

Station Depth Elevation
No new snow has been reported.

Earthquake Activity

City Distance Mag. Time & Date
No recent earthquake activity has been reported nearby.
Minimum magnitude displayed is 2.5.

Coastal Water Temperatures

Place Temperature
No Stations Reporting

Nearby Weather Stations

Station Location Temp. Heat Index Dew Point Humidity Wind Precip. Elev Updated Type
MesoWest MINTRN , Minturn, AR 76 °F 74 °F - - North  at  - 0.00 in / hr 259 ft 3:05 AM CDT MADIS
MesoWest OKEAN , O'Kean, AR 77 °F 75 °F - - North  at  - 0.00 in / hr 274 ft 3:30 AM CDT MADIS
MesoWest JNSBRO , Jonesboro, AR 81 °F 79 °F - - North  at  - 0.00 in / hr 285 ft 3:50 AM CDT MADIS
Rural Ravenden Springs, Ravenden Springs, AR 79.2 °F 80 °F 57 °F 47% NNW  at  0.0 mph 0.00 in / hr 605 ft 5:12 AM CDT Rapid Fire

Show More Stations Show Fewer Stations